createdAt,value
2024-02-01T00:00:11.978Z,24.6
2024-02-01T00:01:14.669Z,24.6
2024-02-01T00:02:16.761Z,24.6
2024-02-01T00:03:18.567Z,24.6
2024-02-01T00:04:20.865Z,24.6
2024-02-01T00:05:22.857Z,24.6
2024-02-01T00:06:25.210Z,24.6
2024-02-01T00:07:27.564Z,24.6
2024-02-01T00:08:29.362Z,24.6
2024-02-01T00:09:31.399Z,24.6
2024-02-01T00:10:33.207Z,24.6
2024-02-01T00:11:34.990Z,24.6
2024-02-01T00:12:37.084Z,24.6
2024-02-01T00:13:38.868Z,24.6
2024-02-01T00:14:40.644Z,24.6
2024-02-01T00:15:42.621Z,24.6
2024-02-01T00:16:44.314Z,24.6
2024-02-01T00:17:46.094Z,24.7
2024-02-01T00:18:51.311Z,24.6
2024-02-01T00:19:54.344Z,24.7
2024-02-01T00:20:56.625Z,24.7
2024-02-01T00:21:58.876Z,24.7
2024-02-01T00:23:00.665Z,24.7
2024-02-01T00:24:02.498Z,24.7
2024-02-01T00:25:04.725Z,24.7
2024-02-01T00:26:06.501Z,24.7
2024-02-01T00:27:08.309Z,24.6
2024-02-01T00:28:10.576Z,24.7
2024-02-01T00:29:12.383Z,24.7
2024-02-01T00:30:14.211Z,24.7
2024-02-01T00:31:16.432Z,24.7
2024-02-01T00:32:18.495Z,24.7
2024-02-01T00:33:20.541Z,24.7
2024-02-01T00:34:23.165Z,24.7
2024-02-01T00:35:25.718Z,24.7
2024-02-01T00:36:27.420Z,24.7
2024-02-01T00:37:29.187Z,24.7
2024-02-01T00:38:30.961Z,24.7
2024-02-01T00:39:33.092Z,24.7
2024-02-01T00:40:34.895Z,24.6
2024-02-01T00:41:36.775Z,24.6
2024-02-01T00:42:39.119Z,24.5
2024-02-01T00:43:41.604Z,24.5
2024-02-01T00:44:43.519Z,24.5
2024-02-01T00:45:45.749Z,24.5
2024-02-01T00:46:47.670Z,24.5
2024-02-01T00:47:49.674Z,24.4
2024-02-01T00:48:52.576Z,24.4
2024-02-01T00:49:55.094Z,24.5
2024-02-01T00:50:57.073Z,24.5
2024-02-01T00:51:59.473Z,24.5
2024-02-01T00:53:01.364Z,24.5
2024-02-01T00:54:03.157Z,24.5
2024-02-01T00:55:05.401Z,24.5
2024-02-01T00:56:07.184Z,24.5
2024-02-01T00:57:09.133Z,24.5
2024-02-01T00:58:11.604Z,24.5
2024-02-01T00:59:13.345Z,24.5
2024-02-01T01:00:15.170Z,24.5
2024-02-01T01:01:17.796Z,24.5
2024-02-01T01:02:20.449Z,24.5
2024-02-01T01:03:22.270Z,24.6
2024-02-01T01:04:24.582Z,24.6
2024-02-01T01:05:26.520Z,24.6
2024-02-01T01:06:28.324Z,24.6
2024-02-01T01:07:30.066Z,24.6
2024-02-01T01:08:32.147Z,24.6
2024-02-01T01:09:34.041Z,24.6
2024-02-01T01:10:35.756Z,24.6
2024-02-01T01:11:37.555Z,24.6
2024-02-01T01:12:39.358Z,24.6
2024-02-01T01:13:41.139Z,24.6
2024-02-01T01:14:42.978Z,24.6
2024-02-01T01:15:45.256Z,24.6
2024-02-01T01:16:47.717Z,24.6
2024-02-01T01:17:49.577Z,24.6
2024-02-01T01:18:51.921Z,24.6
2024-02-01T01:19:54.611Z,24.6
2024-02-01T01:20:56.751Z,24.6
2024-02-01T01:21:58.987Z,24.6
2024-02-01T01:23:00.913Z,24.6
2024-02-01T01:24:02.857Z,24.6
2024-02-01T01:25:05.087Z,24.6
2024-02-01T01:26:07.289Z,24.6
2024-02-01T01:27:09.224Z,24.6
2024-02-01T01:28:11.721Z,24.5
2024-02-01T01:29:13.521Z,24.4
2024-02-01T01:30:15.304Z,24.4
2024-02-01T01:31:17.516Z,24.3
2024-02-01T01:32:19.261Z,24.3
2024-02-01T01:33:21.108Z,24.3
2024-02-01T01:34:23.445Z,24.4
2024-02-01T01:35:25.540Z,24.4
2024-02-01T01:36:27.312Z,24.4
2024-02-01T01:37:29.130Z,24.4
2024-02-01T01:38:30.857Z,24.4
2024-02-01T01:39:33.023Z,24.4
2024-02-01T01:40:34.735Z,24.4
2024-02-01T01:41:36.594Z,24.4
2024-02-01T01:42:38.603Z,24.4
2024-02-01T01:43:40.380Z,24.4
2024-02-01T01:44:42.080Z,24.5
2024-02-01T01:45:43.912Z,24.4
2024-02-01T01:46:45.750Z,24.5
2024-02-01T01:47:47.666Z,24.5
2024-02-01T01:48:50.596Z,24.4
2024-02-01T01:49:53.802Z,24.4
2024-02-01T01:50:56.151Z,24.4
2024-02-01T01:51:58.290Z,24.4
2024-02-01T01:53:00.087Z,24.4
2024-02-01T01:54:02.032Z,24.5
2024-02-01T01:55:04.017Z,24.5
2024-02-01T01:56:05.777Z,24.5
2024-02-01T01:57:07.567Z,24.5
2024-02-01T01:58:09.863Z,24.5
2024-02-01T01:59:11.633Z,24.5
2024-02-01T02:00:13.491Z,24.5
2024-02-01T02:01:15.568Z,24.5
2024-02-01T02:02:17.848Z,24.5
2024-02-01T02:03:19.734Z,24.5
2024-02-01T02:04:22.401Z,24.5
2024-02-01T02:05:25.235Z,24.5
2024-02-01T02:06:27.416Z,24.5
2024-02-01T02:07:30.159Z,24.5
2024-02-01T02:08:32.020Z,24.5
2024-02-01T02:09:34.013Z,24.5
2024-02-01T02:10:36.716Z,24.5
2024-02-01T02:11:38.662Z,24.5
2024-02-01T02:12:40.555Z,24.5
2024-02-01T02:13:42.326Z,24.4
2024-02-01T02:14:44.176Z,24.4
2024-02-01T02:15:46.116Z,24.3
2024-02-01T02:16:48.309Z,24.3
2024-02-01T02:17:50.451Z,24.3
2024-02-01T02:18:53.188Z,24.3
2024-02-01T02:19:56.924Z,24.3
2024-02-01T02:21:00.423Z,24.3
2024-02-01T02:22:02.470Z,24.3
2024-02-01T02:23:04.280Z,24.3
2024-02-01T02:24:06.100Z,24.3
2024-02-01T02:25:08.508Z,24.3
2024-02-01T02:26:10.292Z,24.3
2024-02-01T02:27:12.062Z,24.4
2024-02-01T02:28:14.278Z,24.3
2024-02-01T02:29:16.401Z,24.4
2024-02-01T02:30:18.724Z,24.4
2024-02-01T02:31:20.984Z,24.3
2024-02-01T02:32:22.815Z,24.4
2024-02-01T02:33:24.760Z,24.4
2024-02-01T02:34:27.344Z,24.4
2024-02-01T02:35:29.764Z,24.4
2024-02-01T02:36:32.052Z,24.4
2024-02-01T02:37:33.744Z,24.4
2024-02-01T02:38:35.444Z,24.4
2024-02-01T02:39:37.656Z,24.4
2024-02-01T02:40:39.431Z,24.4
2024-02-01T02:41:41.217Z,24.4
2024-02-01T02:42:43.664Z,24.4
2024-02-01T02:43:45.427Z,24.4
2024-02-01T02:44:47.238Z,24.4
2024-02-01T02:45:49.224Z,24.4
2024-02-01T02:46:51.033Z,24.4
2024-02-01T02:47:52.910Z,24.4
2024-02-01T02:48:55.363Z,24.4
2024-02-01T02:49:57.828Z,24.4
2024-02-01T02:51:00.658Z,24.4
2024-02-01T02:52:02.914Z,24.4
2024-02-01T02:53:04.780Z,24.4
2024-02-01T02:54:06.552Z,24.4
2024-02-01T02:55:08.956Z,24.4
2024-02-01T02:56:10.807Z,24.4
2024-02-01T02:57:12.650Z,24.4
2024-02-01T02:58:14.870Z,24.4
2024-02-01T02:59:16.624Z,24.4
2024-02-01T03:00:18.499Z,24.4
2024-02-01T03:01:20.764Z,24.4
2024-02-01T03:02:22.923Z,24.4
2024-02-01T03:03:24.730Z,24.4
2024-02-01T03:04:27.243Z,24.4
2024-02-01T03:05:29.158Z,24.4
2024-02-01T03:06:31.002Z,24.4
2024-02-01T03:07:33.293Z,24.4
2024-02-01T03:08:35.092Z,24.4
2024-02-01T03:09:37.104Z,24.4
2024-02-01T03:10:38.891Z,24.4
2024-02-01T03:11:40.678Z,24.4
2024-02-01T03:12:42.749Z,24.4
2024-02-01T03:13:44.540Z,24.4
2024-02-01T03:14:46.344Z,24.4
2024-02-01T03:15:48.383Z,24.4
2024-02-01T03:16:50.320Z,24.4
2024-02-01T03:17:52.162Z,24.4
2024-02-01T03:18:54.887Z,24.4
2024-02-01T03:19:57.328Z,24.4
2024-02-01T03:20:59.612Z,24.4
2024-02-01T03:22:01.664Z,24.4
2024-02-01T03:23:03.580Z,24.4
2024-02-01T03:24:05.445Z,24.4
2024-02-01T03:25:07.860Z,24.4
2024-02-01T03:26:09.798Z,24.4
2024-02-01T03:27:11.650Z,24.4
2024-02-01T03:28:13.940Z,24.3
2024-02-01T03:29:15.777Z,24.3
2024-02-01T03:30:17.568Z,24.3
2024-02-01T03:31:20.588Z,24.3
2024-02-01T03:32:22.876Z,24.3
2024-02-01T03:33:24.727Z,24.3
2024-02-01T03:34:27.569Z,24.3
2024-02-01T03:35:29.730Z,24.4
2024-02-01T03:36:31.500Z,24.3
2024-02-01T03:37:33.304Z,24.3
2024-02-01T03:38:35.102Z,24.3
2024-02-01T03:39:36.937Z,24.4
2024-02-01T03:40:38.727Z,24.4
2024-02-01T03:41:40.521Z,24.3
2024-02-01T03:42:42.372Z,24.3
2024-02-01T03:43:44.157Z,24.4
2024-02-01T03:44:46.009Z,24.3
2024-02-01T03:45:48.364Z,24.4
2024-02-01T03:46:50.279Z,24.3
2024-02-01T03:47:52.193Z,24.3
2024-02-01T03:48:54.842Z,24.3
2024-02-01T03:49:57.569Z,24.3
2024-02-01T03:50:59.607Z,24.3
2024-02-01T03:52:02.372Z,24.3
2024-02-01T03:53:04.119Z,24.3
2024-02-01T03:54:05.912Z,24.3
2024-02-01T03:55:08.021Z,24.4
2024-02-01T03:56:09.794Z,24.4
2024-02-01T03:57:11.925Z,24.3
2024-02-01T03:58:14.396Z,24.3
2024-02-01T03:59:16.222Z,24.2
2024-02-01T04:00:18.105Z,24.1
2024-02-01T04:01:20.364Z,24.1
2024-02-01T04:02:22.444Z,24.1
2024-02-01T04:03:24.493Z,24.1
2024-02-01T04:04:26.689Z,24.1
2024-02-01T04:05:28.935Z,24.1
2024-02-01T04:06:31.319Z,24.1
2024-02-01T04:07:33.686Z,23.9
2024-02-01T04:08:35.536Z,23.8
2024-02-01T04:09:37.714Z,23.7
2024-02-01T04:10:39.404Z,23.6
2024-02-01T04:11:41.228Z,23.6
2024-02-01T04:12:43.137Z,23.6
2024-02-01T04:13:44.856Z,23.5
2024-02-01T04:14:46.661Z,23.5
2024-02-01T04:15:48.590Z,23.5
2024-02-01T04:16:50.347Z,23.5
2024-02-01T04:17:52.196Z,23.4
2024-02-01T04:18:54.508Z,23.4
2024-02-01T04:19:57.064Z,23.5
2024-02-01T04:20:59.224Z,23.4
2024-02-01T04:22:01.773Z,23.4
2024-02-01T04:23:03.635Z,23.4
2024-02-01T04:24:05.811Z,23.4
2024-02-01T04:25:07.713Z,23.4
2024-02-01T04:26:09.543Z,23.4
2024-02-01T04:27:11.407Z,23.4
2024-02-01T04:28:13.506Z,23.4
2024-02-01T04:29:15.657Z,23.4
2024-02-01T04:30:17.742Z,23.4
2024-02-01T04:31:19.771Z,23.4
2024-02-01T04:32:21.896Z,23.4
2024-02-01T04:33:23.896Z,23.4
2024-02-01T04:34:26.549Z,23.4
2024-02-01T04:35:28.980Z,23.4
2024-02-01T04:36:30.762Z,23.4
2024-02-01T04:37:32.780Z,23.4
2024-02-01T04:38:34.970Z,23.4
2024-02-01T04:39:37.061Z,23.3
2024-02-01T04:40:38.885Z,23.3
2024-02-01T04:41:41.085Z,23.3
2024-02-01T04:42:43.236Z,23.3
2024-02-01T04:43:45.080Z,23.3
2024-02-01T04:44:46.819Z,23.3
2024-02-01T04:45:48.858Z,23.3
2024-02-01T04:46:50.752Z,23.3
2024-02-01T04:47:52.693Z,23.3
2024-02-01T04:48:55.194Z,23.2
2024-02-01T04:49:58.429Z,23.2
2024-02-01T04:51:00.577Z,23.2
2024-02-01T04:52:02.900Z,23.2
2024-02-01T04:53:04.742Z,23.1
2024-02-01T04:54:06.538Z,23.1
2024-02-01T04:55:08.691Z,23.2
2024-02-01T04:56:10.427Z,23.2
2024-02-01T04:57:12.227Z,23.2
2024-02-01T04:58:14.597Z,23.2
2024-02-01T04:59:16.404Z,23.1
2024-02-01T05:00:18.589Z,23.2
2024-02-01T05:01:21.753Z,23.3
2024-02-01T05:02:24.170Z,23.2
2024-02-01T05:03:28.183Z,23.2
2024-02-01T05:04:32.583Z,23.3
2024-02-01T05:05:34.784Z,23.3
2024-02-01T05:06:37.119Z,23.4
2024-02-01T05:07:39.488Z,23.4
2024-02-01T05:08:41.238Z,23.4
2024-02-01T05:09:43.173Z,23.4
2024-02-01T05:10:45.071Z,23.5
2024-02-01T05:11:47.476Z,23.5
2024-02-01T05:12:49.450Z,23.5
2024-02-01T05:13:51.271Z,23.5
2024-02-01T05:14:53.080Z,23.5
2024-02-01T05:15:55.081Z,23.5
2024-02-01T05:16:56.795Z,23.6
2024-02-01T05:17:58.654Z,23.6
2024-02-01T05:19:01.165Z,23.7
2024-02-01T05:20:06.833Z,23.7
2024-02-01T05:21:09.165Z,23.8
2024-02-01T05:22:11.354Z,23.8
2024-02-01T05:23:13.174Z,23.8
2024-02-01T05:24:15.145Z,23.8
2024-02-01T05:25:17.687Z,23.9
2024-02-01T05:26:19.626Z,23.9
2024-02-01T05:27:21.458Z,23.9
2024-02-01T05:28:23.663Z,23.9
2024-02-01T05:29:25.456Z,23.9
2024-02-01T05:30:27.598Z,24
2024-02-01T05:31:29.736Z,24
2024-02-01T05:32:31.570Z,24
2024-02-01T05:33:33.715Z,24
2024-02-01T05:34:36.614Z,24
2024-02-01T05:35:39.335Z,24
2024-02-01T05:36:41.698Z,24.1
2024-02-01T05:37:43.444Z,24.1
2024-02-01T05:38:45.247Z,24
2024-02-01T05:39:47.240Z,24
2024-02-01T05:40:48.965Z,24
2024-02-01T05:41:50.846Z,23.9
2024-02-01T05:42:52.806Z,23.9
2024-02-01T05:43:54.674Z,23.8
2024-02-01T05:44:56.523Z,23.8
2024-02-01T05:45:58.525Z,23.8
2024-02-01T05:47:00.363Z,23.8
2024-02-01T05:48:02.503Z,23.9
2024-02-01T05:49:05.266Z,23.9
2024-02-01T05:50:07.788Z,23.9
2024-02-01T05:51:09.893Z,24
2024-02-01T05:52:12.078Z,24
2024-02-01T05:53:13.865Z,24
2024-02-01T05:54:15.683Z,23.9
2024-02-01T05:55:18.182Z,24
2024-02-01T05:56:19.983Z,24
2024-02-01T05:57:21.762Z,24.1
2024-02-01T05:58:23.823Z,24.1
2024-02-01T05:59:25.592Z,24.1
2024-02-01T06:00:27.606Z,24.2
2024-02-01T06:01:30.259Z,24.2
2024-02-01T06:02:32.025Z,24.2
2024-02-01T06:03:33.848Z,24.2
2024-02-01T06:04:36.140Z,24.2
2024-02-01T06:05:38.372Z,24.2
2024-02-01T06:06:40.651Z,24.2
2024-02-01T06:07:43.403Z,24.2
2024-02-01T06:08:45.428Z,24.3
2024-02-01T06:09:47.324Z,24.4
2024-02-01T06:10:49.113Z,24.4
2024-02-01T06:11:50.989Z,24.4
2024-02-01T06:12:53.476Z,24.4
2024-02-01T06:13:55.217Z,24.4
2024-02-01T06:14:57.094Z,24.5
2024-02-01T06:15:59.167Z,24.5
2024-02-01T06:17:00.975Z,24.6
2024-02-01T06:18:04.151Z,24.6
2024-02-01T06:19:06.770Z,24.6
2024-02-01T06:20:09.867Z,24.7
2024-02-01T06:21:12.515Z,24.7
2024-02-01T06:22:14.782Z,24.7
2024-02-01T06:23:16.575Z,24.7
2024-02-01T06:24:18.422Z,24.7
2024-02-01T06:25:20.800Z,24.8
2024-02-01T06:26:22.647Z,24.8
2024-02-01T06:27:24.561Z,24.8
2024-02-01T06:28:26.755Z,24.7
2024-02-01T06:29:28.556Z,24.7
2024-02-01T06:30:30.407Z,24.7
2024-02-01T06:31:32.754Z,24.7
2024-02-01T06:32:34.703Z,24.8
2024-02-01T06:33:37.089Z,24.8
2024-02-01T06:34:39.361Z,24.9
2024-02-01T06:35:42.227Z,24.9
2024-02-01T06:36:44.270Z,25
2024-02-01T06:37:46.547Z,25
2024-02-01T06:38:48.514Z,25
2024-02-01T06:39:52.061Z,25.1
2024-02-01T06:40:56.600Z,25.1
2024-02-01T06:41:58.793Z,25.2
2024-02-01T06:43:01.089Z,25.2
2024-02-01T06:44:04.078Z,25.3
2024-02-01T06:45:06.147Z,25.3
2024-02-01T06:46:08.234Z,25.4
2024-02-01T06:47:10.336Z,25.4
2024-02-01T06:48:12.550Z,25.4
2024-02-01T06:49:16.490Z,25.4
2024-02-01T06:50:19.329Z,25.4
2024-02-01T06:51:22.031Z,25.5
2024-02-01T06:52:25.814Z,25.6
2024-02-01T06:53:28.387Z,25.6
2024-02-01T06:54:30.492Z,25.6
2024-02-01T06:55:33.124Z,25.6
2024-02-01T06:56:34.973Z,25.6
2024-02-01T06:57:37.264Z,25.7
2024-02-01T06:58:39.289Z,25.7
2024-02-01T06:59:41.153Z,25.8
2024-02-01T07:00:43.200Z,25.8
2024-02-01T07:01:46.034Z,25.8
2024-02-01T07:02:48.107Z,25.9
2024-02-01T07:03:51.271Z,25.9
2024-02-01T07:04:54.826Z,25.9
2024-02-01T07:05:57.169Z,25.9
2024-02-01T07:06:59.885Z,25.9
2024-02-01T07:08:02.167Z,25.9
2024-02-01T07:09:04.043Z,25.9
2024-02-01T07:10:06.006Z,25.9
2024-02-01T07:11:07.803Z,26
2024-02-01T07:12:09.652Z,26
2024-02-01T07:13:11.930Z,26
2024-02-01T07:14:13.795Z,26
2024-02-01T07:15:15.689Z,26.1
2024-02-01T07:16:17.891Z,26.1
2024-02-01T07:17:19.755Z,26.2
2024-02-01T07:18:21.855Z,26.2
2024-02-01T07:19:25.180Z,26.2
2024-02-01T07:20:27.754Z,26.2
2024-02-01T07:21:29.630Z,26.3
2024-02-01T07:22:31.863Z,26.3
2024-02-01T07:23:33.688Z,26.3
2024-02-01T07:24:35.979Z,26.3
2024-02-01T07:25:37.837Z,26.3
2024-02-01T07:26:40.286Z,26.3
2024-02-01T07:27:42.330Z,26.3
2024-02-01T07:28:44.177Z,26.2
2024-02-01T07:29:46.116Z,26.2
2024-02-01T07:30:48.234Z,26.2
2024-02-01T07:31:50.119Z,26.1
2024-02-01T07:32:52.164Z,26.1
2024-02-01T07:33:54.459Z,26
2024-02-01T07:34:57.644Z,26
2024-02-01T07:35:59.944Z,26
2024-02-01T07:37:01.963Z,25.9
2024-02-01T07:38:04.289Z,26
2024-02-01T07:39:06.152Z,26
2024-02-01T07:40:08.321Z,26
2024-02-01T07:41:10.382Z,26
2024-02-01T07:42:12.248Z,26
2024-02-01T07:43:14.493Z,26.1
2024-02-01T07:44:16.314Z,26.1
2024-02-01T07:45:18.115Z,26.2
2024-02-01T07:46:20.742Z,26.2
2024-02-01T07:47:22.508Z,26.3
2024-02-01T07:48:24.376Z,26.3
2024-02-01T07:49:27.475Z,26.3
2024-02-01T07:50:30.518Z,26.4
2024-02-01T07:51:32.301Z,26.4
2024-02-01T07:52:34.285Z,26.4
2024-02-01T07:53:36.126Z,26.4
2024-02-01T07:54:38.608Z,26.4
2024-02-01T07:55:40.396Z,26.4
2024-02-01T07:56:42.155Z,26.4
2024-02-01T07:57:44.182Z,26.4
2024-02-01T07:58:45.997Z,26.4
2024-02-01T07:59:47.901Z,26.4
2024-02-01T08:00:49.798Z,26.5
2024-02-01T08:01:51.856Z,26.5
2024-02-01T08:02:53.695Z,26.5
2024-02-01T08:03:55.801Z,26.5
2024-02-01T08:04:58.090Z,26.5
2024-02-01T08:06:00.091Z,26.5
2024-02-01T08:07:03.880Z,26.5
2024-02-01T08:08:07.094Z,26.6
2024-02-01T08:09:08.925Z,26.6
2024-02-01T08:10:10.930Z,26.6
2024-02-01T08:11:12.816Z,26.6
2024-02-01T08:12:14.701Z,26.6
2024-02-01T08:13:17.006Z,26.6
2024-02-01T08:14:18.868Z,26.6
2024-02-01T08:15:21.369Z,26.6
2024-02-01T08:16:24.219Z,26.7
2024-02-01T08:17:26.131Z,26.7
2024-02-01T08:18:28.054Z,26.7
2024-02-01T08:19:39.111Z,26.7
2024-02-01T08:20:44.241Z,26.7
2024-02-01T08:21:46.821Z,26.7
2024-02-01T08:22:49.432Z,26.7
2024-02-01T08:23:52.391Z,26.7
2024-02-01T08:24:54.515Z,26.7
2024-02-01T08:25:56.376Z,26.7
2024-02-01T08:26:58.785Z,26.7
2024-02-01T08:28:00.993Z,26.7
2024-02-01T08:29:03.943Z,26.7
2024-02-01T08:30:05.806Z,26.7
2024-02-01T08:31:07.938Z,26.8
2024-02-01T08:32:11.116Z,26.8
2024-02-01T08:33:12.976Z,26.8
2024-02-01T08:34:16.100Z,26.8
2024-02-01T08:35:19.273Z,26.7
2024-02-01T08:36:22.070Z,26.7
2024-02-01T08:37:24.412Z,26.7
2024-02-01T08:38:26.236Z,26.7
2024-02-01T08:39:28.061Z,26.7
2024-02-01T08:40:30.148Z,26.7
2024-02-01T08:41:32.036Z,26.7
2024-02-01T08:42:34.629Z,26.7
2024-02-01T08:43:36.888Z,26.7
2024-02-01T08:44:38.695Z,26.7
2024-02-01T08:45:40.596Z,26.7
2024-02-01T08:46:42.728Z,26.7
2024-02-01T08:47:45.853Z,26.7
2024-02-01T08:48:49.163Z,26.7
2024-02-01T08:49:51.933Z,26.8
2024-02-01T08:50:54.375Z,26.8
2024-02-01T08:51:56.545Z,26.7
2024-02-01T08:52:58.397Z,26.7
2024-02-01T08:54:00.273Z,26.7
2024-02-01T08:55:02.663Z,26.8
2024-02-01T08:56:06.279Z,26.8
2024-02-01T08:57:08.063Z,26.9
2024-02-01T08:58:10.845Z,26.9
2024-02-01T08:59:12.983Z,26.8
2024-02-01T09:00:14.892Z,26.8
2024-02-01T09:01:17.188Z,26.8
2024-02-01T09:02:19.320Z,26.8
2024-02-01T09:03:21.364Z,26.8
2024-02-01T09:04:23.675Z,26.8
2024-02-01T09:05:25.883Z,26.8
2024-02-01T09:06:28.626Z,26.7
2024-02-01T09:07:31.417Z,26.7
2024-02-01T09:08:34.741Z,26.5
2024-02-01T09:09:36.685Z,26.4
2024-02-01T09:10:38.477Z,26.3
2024-02-01T09:11:40.281Z,26.2
2024-02-01T09:12:42.138Z,26
2024-02-01T09:13:44.085Z,26
2024-02-01T09:14:46.600Z,25.9
2024-02-01T09:15:49.038Z,25.9
2024-02-01T09:16:50.860Z,25.8
2024-02-01T09:17:52.721Z,25.8
2024-02-01T09:18:55.714Z,25.8
2024-02-01T09:19:58.584Z,25.9
2024-02-01T09:21:00.967Z,26
2024-02-01T09:22:09.140Z,26
2024-02-01T09:23:10.911Z,26.1
2024-02-01T09:24:12.956Z,26.1
2024-02-01T09:25:15.253Z,26.2
2024-02-01T09:26:18.024Z,26.3
2024-02-01T09:27:20.132Z,26.3
2024-02-01T09:28:22.048Z,26.3
2024-02-01T09:29:23.862Z,26.4
2024-02-01T09:30:25.846Z,26.4
2024-02-01T09:31:28.256Z,26.4
2024-02-01T09:32:30.123Z,26.4
2024-02-01T09:33:32.561Z,26.5
2024-02-01T09:34:34.968Z,26.5
2024-02-01T09:35:37.538Z,26.5
2024-02-01T09:36:39.720Z,26.5
2024-02-01T09:37:41.525Z,26.5
2024-02-01T09:38:46.230Z,26.5
2024-02-01T09:39:49.016Z,26.5
2024-02-01T09:40:50.811Z,26.5
2024-02-01T09:41:52.642Z,26.6
2024-02-01T09:42:54.840Z,26.6
2024-02-01T09:43:56.630Z,26.6
2024-02-01T09:44:58.527Z,26.6
2024-02-01T09:46:00.703Z,26.6
2024-02-01T09:47:02.905Z,26.6
2024-02-01T09:48:04.776Z,26.6
2024-02-01T09:49:11.860Z,26.6
2024-02-01T09:50:34.648Z,26.7
2024-02-01T09:51:36.734Z,26.7
2024-02-01T09:52:38.507Z,26.7
2024-02-01T09:53:40.349Z,26.7
2024-02-01T09:54:42.293Z,26.7
2024-02-01T09:55:44.239Z,26.7
2024-02-01T09:56:46.127Z,26.7
2024-02-01T09:57:48.099Z,26.7
2024-02-01T09:58:49.891Z,26.8
2024-02-01T09:59:51.733Z,26.7
2024-02-01T10:00:53.760Z,26.8
2024-02-01T10:01:55.807Z,26.8
2024-02-01T10:02:57.715Z,26.8
2024-02-01T10:04:00.489Z,26.8
2024-02-01T10:05:03.824Z,26.8
2024-02-01T10:06:05.711Z,26.8
2024-02-01T10:07:08.593Z,26.9
2024-02-01T10:08:10.785Z,26.9
2024-02-01T10:09:12.591Z,26.8
2024-02-01T10:10:14.368Z,26.8
2024-02-01T10:11:16.345Z,26.8
2024-02-01T10:12:18.179Z,26.6
2024-02-01T10:13:20.884Z,26.5
2024-02-01T10:14:22.843Z,26.4
2024-02-01T10:15:24.839Z,26.3
2024-02-01T10:16:27.309Z,26.2
2024-02-01T10:17:29.135Z,26.1
2024-02-01T10:18:31.639Z,26.1
2024-02-01T10:19:34.473Z,26.1
2024-02-01T10:20:37.167Z,26.1
2024-02-01T10:21:40.371Z,26.1
2024-02-01T10:23:02.085Z,26
2024-02-01T10:24:04.189Z,26
2024-02-01T10:25:06.413Z,26
2024-02-01T10:26:08.346Z,25.9
2024-02-01T10:27:10.405Z,25.9
2024-02-01T10:28:12.458Z,25.9
2024-02-01T10:29:14.421Z,25.9
2024-02-01T10:30:16.291Z,25.9
2024-02-01T10:31:18.419Z,25.8
2024-02-01T10:32:20.668Z,25.8
2024-02-01T10:33:24.018Z,25.9
2024-02-01T10:34:31.796Z,26
2024-02-01T10:35:34.084Z,26
2024-02-01T10:36:35.910Z,26.1
2024-02-01T10:37:37.715Z,26.2
2024-02-01T10:38:40.370Z,26.3
2024-02-01T10:39:44.651Z,26.3
2024-02-01T10:40:46.429Z,26.4
2024-02-01T10:41:48.322Z,26.4
2024-02-01T10:42:50.502Z,26.5
2024-02-01T10:43:52.313Z,26.5
2024-02-01T10:44:54.181Z,26.6
2024-02-01T10:45:56.052Z,26.6
2024-02-01T10:46:57.857Z,26.6
2024-02-01T10:47:59.847Z,26.6
2024-02-01T10:49:02.660Z,26.7
2024-02-01T10:50:05.541Z,26.7
2024-02-01T10:51:07.390Z,26.8
2024-02-01T10:52:09.353Z,26.8
2024-02-01T10:53:11.111Z,26.8
2024-02-01T10:54:12.936Z,26.8
2024-02-01T10:55:14.795Z,26.8
2024-02-01T10:56:16.722Z,26.8
2024-02-01T10:57:18.735Z,26.8
2024-02-01T10:58:21.318Z,26.9
2024-02-01T10:59:23.068Z,26.9
2024-02-01T11:00:25.007Z,26.9
2024-02-01T11:01:27.468Z,27
2024-02-01T11:02:29.441Z,27
2024-02-01T11:03:31.754Z,27
2024-02-01T11:04:39.694Z,27
2024-02-01T11:05:41.743Z,27
2024-02-01T11:06:43.806Z,27
2024-02-01T11:07:46.345Z,27
2024-02-01T11:08:48.128Z,27
2024-02-01T11:09:50.357Z,27
2024-02-01T11:10:52.844Z,27
2024-02-01T11:11:54.706Z,27.1
2024-02-01T11:12:56.973Z,27
2024-02-01T11:13:59.040Z,27
2024-02-01T11:15:00.822Z,27.1
2024-02-01T11:16:04.662Z,27.1
2024-02-01T11:17:06.492Z,27.1
2024-02-01T11:18:08.712Z,27.1
2024-02-01T11:19:11.889Z,27.2
2024-02-01T11:20:15.067Z,27.2
2024-02-01T11:21:17.454Z,27.2
2024-02-01T11:22:19.661Z,27.2
2024-02-01T11:23:21.495Z,27.2
2024-02-01T11:24:23.294Z,27.2
2024-02-01T11:25:25.157Z,27.2
2024-02-01T11:26:26.906Z,27.2
2024-02-01T11:27:28.673Z,27.3
2024-02-01T11:28:31.003Z,27.3
2024-02-01T11:29:32.834Z,27.3
2024-02-01T11:30:34.608Z,27.3
2024-02-01T11:31:41.965Z,27.3
2024-02-01T11:32:54.370Z,27.4
2024-02-01T11:33:57.368Z,27.4
2024-02-01T11:34:59.971Z,27.4
2024-02-01T11:36:03.166Z,27.4
2024-02-01T11:37:05.002Z,27.4
2024-02-01T11:38:07.130Z,27.4
2024-02-01T11:39:08.978Z,27.5
2024-02-01T11:40:10.896Z,27.5
2024-02-01T11:41:13.019Z,27.5
2024-02-01T11:42:20.566Z,27.5
2024-02-01T11:43:35.804Z,27.5
2024-02-01T11:44:37.668Z,27.5
2024-02-01T11:45:39.601Z,27.5
2024-02-01T11:46:41.423Z,27.5
2024-02-01T11:47:43.921Z,27.5
2024-02-01T11:48:46.875Z,27.5
2024-02-01T11:49:49.397Z,27.5
2024-02-01T11:50:52.235Z,27.6
2024-02-01T11:51:54.198Z,27.6
2024-02-01T11:52:55.981Z,27.6
2024-02-01T11:53:57.759Z,27.6
2024-02-01T11:54:59.890Z,27.6
2024-02-01T11:56:05.638Z,27.6
2024-02-01T11:57:07.725Z,27.6
2024-02-01T11:58:09.774Z,27.6
2024-02-01T11:59:11.534Z,27.6
2024-02-01T12:00:13.769Z,27.6
2024-02-01T12:01:16.654Z,27.6
2024-02-01T12:02:20.222Z,27.6
2024-02-01T12:03:22.267Z,27.6
2024-02-01T12:04:24.524Z,27.7
2024-02-01T12:05:26.489Z,27.7
2024-02-01T12:06:28.403Z,27.7
2024-02-01T12:07:30.330Z,27.7
2024-02-01T12:08:34.439Z,27.7
2024-02-01T12:09:37.565Z,27.7
2024-02-01T12:10:39.663Z,27.7
2024-02-01T12:11:41.538Z,27.7
2024-02-01T12:12:43.409Z,27.7
2024-02-01T12:13:45.190Z,27.7
2024-02-01T12:14:47.021Z,27.7
2024-02-01T12:15:49.310Z,27.7
2024-02-01T12:16:51.069Z,27.7
2024-02-01T12:17:52.919Z,27.7
2024-02-01T12:18:55.454Z,27.7
2024-02-01T12:19:58.829Z,27.7
2024-02-01T12:21:01.563Z,27.8
2024-02-01T12:22:04.317Z,27.8
2024-02-01T12:23:06.132Z,27.8
2024-02-01T12:24:07.970Z,27.8
2024-02-01T12:25:09.989Z,27.8
2024-02-01T12:26:11.777Z,27.8
2024-02-01T12:27:13.561Z,27.8
2024-02-01T12:28:15.480Z,27.8
2024-02-01T12:29:17.663Z,27.8
2024-02-01T12:30:19.625Z,27.8
2024-02-01T12:31:22.231Z,27.8
2024-02-01T12:32:24.009Z,27.9
2024-02-01T12:33:25.859Z,27.9
2024-02-01T12:34:28.654Z,27.9
2024-02-01T12:35:31.751Z,27.9
2024-02-01T12:36:33.652Z,27.9
2024-02-01T12:37:35.384Z,27.9
2024-02-01T12:38:37.209Z,27.9
2024-02-01T12:39:39.048Z,27.9
2024-02-01T12:40:40.781Z,27.9
2024-02-01T12:41:42.711Z,27.9
2024-02-01T12:42:44.580Z,27.9
2024-02-01T12:43:46.374Z,27.9
2024-02-01T12:44:48.224Z,27.9
2024-02-01T12:45:50.062Z,27.9
2024-02-01T12:46:52.123Z,27.9
2024-02-01T12:47:53.973Z,27.9
2024-02-01T12:48:56.319Z,27.9
2024-02-01T12:49:59.119Z,28
2024-02-01T12:51:01.201Z,28
2024-02-01T12:52:03.604Z,28
2024-02-01T12:53:05.381Z,28
2024-02-01T12:54:07.248Z,28
2024-02-01T12:55:09.113Z,28
2024-02-01T12:56:10.923Z,28
2024-02-01T12:57:12.753Z,28
2024-02-01T12:58:15.124Z,28
2024-02-01T12:59:16.877Z,28
2024-02-01T13:00:18.667Z,28
2024-02-01T13:01:21.124Z,28
2024-02-01T13:02:23.244Z,28
2024-02-01T13:03:25.173Z,27.9
2024-02-01T13:04:27.381Z,27.9
2024-02-01T13:05:29.683Z,27.9
2024-02-01T13:06:31.691Z,27.9
2024-02-01T13:07:34.434Z,28
2024-02-01T13:08:36.254Z,28
2024-02-01T13:09:38.031Z,27.9
2024-02-01T13:10:39.774Z,27.9
2024-02-01T13:11:42.249Z,27.9
2024-02-01T13:12:44.542Z,27.9
2024-02-01T13:13:46.366Z,27.9
2024-02-01T13:14:48.218Z,27.9
2024-02-01T13:15:50.347Z,27.9
2024-02-01T13:16:52.096Z,28
2024-02-01T13:17:54.316Z,28
2024-02-01T13:18:57.702Z,28
2024-02-01T13:20:00.717Z,27.9
2024-02-01T13:21:03.193Z,27.9
2024-02-01T13:22:05.649Z,27.9
2024-02-01T13:23:07.413Z,28
2024-02-01T13:24:09.222Z,27.9
2024-02-01T13:25:11.218Z,27.9
2024-02-01T13:26:13.033Z,28
2024-02-01T13:27:15.326Z,28
2024-02-01T13:28:17.487Z,28
2024-02-01T13:29:19.300Z,28
2024-02-01T13:30:21.220Z,28
2024-02-01T13:31:23.941Z,28
2024-02-01T13:32:25.665Z,28
2024-02-01T13:33:27.516Z,28
2024-02-01T13:34:30.275Z,28
2024-02-01T13:35:33.075Z,28
2024-02-01T13:36:34.903Z,28
2024-02-01T13:37:36.710Z,28
2024-02-01T13:38:38.503Z,28
2024-02-01T13:39:40.588Z,28
2024-02-01T13:40:42.898Z,28
2024-02-01T13:41:44.688Z,28
2024-02-01T13:42:46.970Z,28
2024-02-01T13:43:49.099Z,28
2024-02-01T13:44:51.125Z,28
2024-02-01T13:45:53.242Z,28
2024-02-01T13:46:55.206Z,28
2024-02-01T13:47:57.565Z,28
2024-02-01T13:49:00.183Z,28
2024-02-01T13:50:02.828Z,28
2024-02-01T13:51:05.586Z,28.1
2024-02-01T13:52:07.523Z,28
2024-02-01T13:53:09.429Z,28
2024-02-01T13:54:11.241Z,28
2024-02-01T13:55:13.124Z,28
2024-02-01T13:56:16.117Z,28